sensor_id;sensor_type;location;lat;lon;timestamp;temperature;humidity
25300;DHT22;13241;51.208;4.432;2023-08-07T00:01:15;14.40;99.90
25300;DHT22;13241;51.208;4.432;2023-08-07T00:03:42;14.30;99.90
25300;DHT22;13241;51.208;4.432;2023-08-07T00:06:09;14.30;99.90
25300;DHT22;13241;51.208;4.432;2023-08-07T00:08:36;14.30;99.90
25300;DHT22;13241;51.208;4.432;2023-08-07T00:11:10;14.30;99.90
25300;DHT22;13241;51.208;4.432;2023-08-07T00:13:37;14.20;99.90
25300;DHT22;13241;51.208;4.432;2023-08-07T00:16:04;14.20;99.90
25300;DHT22;13241;51.208;4.432;2023-08-07T00:18:31;14.20;99.90
25300;DHT22;13241;51.208;4.432;2023-08-07T00:20:59;14.20;99.90
25300;DHT22;13241;51.208;4.432;2023-08-07T00:23:26;14.30;99.90
25300;DHT22;13241;51.208;4.432;2023-08-07T00:25:53;14.30;99.90
25300;DHT22;13241;51.208;4.432;2023-08-07T00:28:20;14.30;99.90
25300;DHT22;13241;51.208;4.432;2023-08-07T00:30:47;14.50;99.90
25300;DHT22;13241;51.208;4.432;2023-08-07T00:33:14;14.60;99.90
25300;DHT22;13241;51.208;4.432;2023-08-07T00:35:41;14.70;99.90
25300;DHT22;13241;51.208;4.432;2023-08-07T00:38:08;14.70;99.90
25300;DHT22;13241;51.208;4.432;2023-08-07T00:40:39;14.70;99.90
25300;DHT22;13241;51.208;4.432;2023-08-07T00:43:07;14.70;99.90
25300;DHT22;13241;51.208;4.432;2023-08-07T00:45:40;14.60;99.90
25300;DHT22;13241;51.208;4.432;2023-08-07T00:48:08;14.60;99.90
25300;DHT22;13241;51.208;4.432;2023-08-07T00:50:37;14.50;99.90
25300;DHT22;13241;51.208;4.432;2023-08-07T00:53:14;14.50;99.90
25300;DHT22;13241;51.208;4.432;2023-08-07T00:55:42;14.50;99.90
25300;DHT22;13241;51.208;4.432;2023-08-07T00:58:09;14.40;99.90
25300;DHT22;13241;51.208;4.432;2023-08-07T01:00:37;14.50;99.90
25300;DHT22;13241;51.208;4.432;2023-08-07T01:03:08;14.40;99.90
25300;DHT22;13241;51.208;4.432;2023-08-07T01:05:35;14.30;99.90
25300;DHT22;13241;51.208;4.432;2023-08-07T01:08:03;14.40;99.90
25300;DHT22;13241;51.208;4.432;2023-08-07T01:10:43;14.20;99.90
25300;DHT22;13241;51.208;4.432;2023-08-07T01:13:22;14.20;99.90
25300;DHT22;13241;51.208;4.432;2023-08-07T01:15:55;14.20;99.90
25300;DHT22;13241;51.208;4.432;2023-08-07T01:18:23;14.20;99.90
25300;DHT22;13241;51.208;4.432;2023-08-07T01:20:51;14.20;99.90
25300;DHT22;13241;51.208;4.432;2023-08-07T01:23:18;14.20;99.90
25300;DHT22;13241;51.208;4.432;2023-08-07T01:25:46;14.20;99.90
25300;DHT22;13241;51.208;4.432;2023-08-07T01:28:19;14.20;99.90
25300;DHT22;13241;51.208;4.432;2023-08-07T01:30:54;14.30;99.90
25300;DHT22;13241;51.208;4.432;2023-08-07T01:33:34;14.40;99.90
25300;DHT22;13241;51.208;4.432;2023-08-07T01:36:05;14.30;99.90
25300;DHT22;13241;51.208;4.432;2023-08-07T01:38:34;14.40;99.90
25300;DHT22;13241;51.208;4.432;2023-08-07T01:41:03;14.50;99.90
25300;DHT22;13241;51.208;4.432;2023-08-07T01:43:30;14.50;99.90
25300;DHT22;13241;51.208;4.432;2023-08-07T01:46:01;14.60;99.90
25300;DHT22;13241;51.208;4.432;2023-08-07T01:48:29;14.60;99.90
25300;DHT22;13241;51.208;4.432;2023-08-07T01:50:56;14.60;99.90
25300;DHT22;13241;51.208;4.432;2023-08-07T01:53:23;14.50;99.90
25300;DHT22;13241;51.208;4.432;2023-08-07T01:55:50;14.50;99.90
25300;DHT22;13241;51.208;4.432;2023-08-07T01:58:17;14.40;99.90
25300;DHT22;13241;51.208;4.432;2023-08-07T02:00:44;14.30;99.90
25300;DHT22;13241;51.208;4.432;2023-08-07T02:03:11;14.20;99.90
25300;DHT22;13241;51.208;4.432;2023-08-07T02:05:38;14.20;99.90
25300;DHT22;13241;51.208;4.432;2023-08-07T02:08:05;14.20;99.90
25300;DHT22;13241;51.208;4.432;2023-08-07T02:10:32;14.20;99.90
25300;DHT22;13241;51.208;4.432;2023-08-07T02:12:59;14.10;99.90
25300;DHT22;13241;51.208;4.432;2023-08-07T02:15:26;14.10;99.90
25300;DHT22;13241;51.208;4.432;2023-08-07T02:17:53;14.00;99.90
25300;DHT22;13241;51.208;4.432;2023-08-07T02:20:20;13.90;99.90
25300;DHT22;13241;51.208;4.432;2023-08-07T02:22:48;13.90;99.90
25300;DHT22;13241;51.208;4.432;2023-08-07T02:25:15;13.80;99.90
25300;DHT22;13241;51.208;4.432;2023-08-07T02:27:42;13.90;99.90
25300;DHT22;13241;51.208;4.432;2023-08-07T02:30:10;13.90;99.90
25300;DHT22;13241;51.208;4.432;2023-08-07T02:32:37;13.90;99.90
25300;DHT22;13241;51.208;4.432;2023-08-07T02:35:04;13.90;99.90
25300;DHT22;13241;51.208;4.432;2023-08-07T02:37:31;13.90;99.90
25300;DHT22;13241;51.208;4.432;2023-08-07T02:39:58;13.90;99.90
25300;DHT22;13241;51.208;4.432;2023-08-07T02:42:25;13.90;99.90
25300;DHT22;13241;51.208;4.432;2023-08-07T02:44:52;13.90;99.90
25300;DHT22;13241;51.208;4.432;2023-08-07T02:47:19;14.00;99.90
25300;DHT22;13241;51.208;4.432;2023-08-07T02:49:46;14.00;99.90
25300;DHT22;13241;51.208;4.432;2023-08-07T02:52:13;14.00;99.90
25300;DHT22;13241;51.208;4.432;2023-08-07T02:54:40;14.10;99.90
25300;DHT22;13241;51.208;4.432;2023-08-07T02:57:07;14.20;99.90
25300;DHT22;13241;51.208;4.432;2023-08-07T02:59:34;14.20;99.90
25300;DHT22;13241;51.208;4.432;2023-08-07T03:02:01;14.30;99.90
25300;DHT22;13241;51.208;4.432;2023-08-07T03:04:28;14.40;99.90
25300;DHT22;13241;51.208;4.432;2023-08-07T03:06:55;14.40;99.90
25300;DHT22;13241;51.208;4.432;2023-08-07T03:09:23;14.50;99.90
25300;DHT22;13241;51.208;4.432;2023-08-07T03:11:50;14.50;99.90
25300;DHT22;13241;51.208;4.432;2023-08-07T03:14:17;14.60;99.90
25300;DHT22;13241;51.208;4.432;2023-08-07T03:16:45;14.60;99.90
25300;DHT22;13241;51.208;4.432;2023-08-07T03:19:12;14.60;99.90
25300;DHT22;13241;51.208;4.432;2023-08-07T03:21:39;14.70;99.90
25300;DHT22;13241;51.208;4.432;2023-08-07T03:24:06;14.70;99.90
25300;DHT22;13241;51.208;4.432;2023-08-07T03:26:35;14.70;99.90
25300;DHT22;13241;51.208;4.432;2023-08-07T03:29:02;14.80;99.90
25300;DHT22;13241;51.208;4.432;2023-08-07T03:31:29;14.80;99.90
25300;DHT22;13241;51.208;4.432;2023-08-07T03:33:57;14.80;99.90
25300;DHT22;13241;51.208;4.432;2023-08-07T03:36:26;14.80;99.90
25300;DHT22;13241;51.208;4.432;2023-08-07T03:38:53;14.90;99.90
25300;DHT22;13241;51.208;4.432;2023-08-07T03:41:20;14.90;99.90
25300;DHT22;13241;51.208;4.432;2023-08-07T03:43:48;14.90;99.90
25300;DHT22;13241;51.208;4.432;2023-08-07T03:46:15;14.90;99.90
25300;DHT22;13241;51.208;4.432;2023-08-07T03:48:42;14.90;99.90
25300;DHT22;13241;51.208;4.432;2023-08-07T03:51:10;14.90;99.90
25300;DHT22;13241;51.208;4.432;2023-08-07T03:53:45;14.90;99.90
25300;DHT22;13241;51.208;4.432;2023-08-07T03:56:12;14.80;99.90
25300;DHT22;13241;51.208;4.432;2023-08-07T03:58:40;14.80;99.90
25300;DHT22;13241;51.208;4.432;2023-08-07T04:01:08;14.80;99.90
25300;DHT22;13241;51.208;4.432;2023-08-07T04:03:35;14.80;99.90
25300;DHT22;13241;51.208;4.432;2023-08-07T04:06:02;14.80;99.90
25300;DHT22;13241;51.208;4.432;2023-08-07T04:08:33;14.90;99.90
25300;DHT22;13241;51.208;4.432;2023-08-07T04:11:04;14.90;99.90
25300;DHT22;13241;51.208;4.432;2023-08-07T04:13:34;14.90;99.90
25300;DHT22;13241;51.208;4.432;2023-08-07T04:16:03;14.90;99.90
25300;DHT22;13241;51.208;4.432;2023-08-07T04:18:35;14.90;99.90
25300;DHT22;13241;51.208;4.432;2023-08-07T04:21:03;15.00;99.90
25300;DHT22;13241;51.208;4.432;2023-08-07T04:23:31;14.90;99.90
25300;DHT22;13241;51.208;4.432;2023-08-07T04:25:59;14.90;99.90
25300;DHT22;13241;51.208;4.432;2023-08-07T04:28:29;14.90;99.90
25300;DHT22;13241;51.208;4.432;2023-08-07T04:30:56;14.80;99.90
25300;DHT22;13241;51.208;4.432;2023-08-07T04:33:24;14.90;99.90
25300;DHT22;13241;51.208;4.432;2023-08-07T04:35:52;14.80;99.90
25300;DHT22;13241;51.208;4.432;2023-08-07T04:38:19;14.70;99.90
25300;DHT22;13241;51.208;4.432;2023-08-07T04:40:47;14.70;99.90
25300;DHT22;13241;51.208;4.432;2023-08-07T04:43:15;14.50;99.90
25300;DHT22;13241;51.208;4.432;2023-08-07T04:45:43;14.50;99.90
25300;DHT22;13241;51.208;4.432;2023-08-07T04:48:12;14.50;99.90
25300;DHT22;13241;51.208;4.432;2023-08-07T04:50:40;14.50;99.90
25300;DHT22;13241;51.208;4.432;2023-08-07T04:53:07;14.60;99.90
25300;DHT22;13241;51.208;4.432;2023-08-07T04:55:34;14.50;99.90
25300;DHT22;13241;51.208;4.432;2023-08-07T04:58:01;14.50;99.90
25300;DHT22;13241;51.208;4.432;2023-08-07T05:00:28;14.40;99.90
25300;DHT22;13241;51.208;4.432;2023-08-07T05:02:56;14.40;99.90
25300;DHT22;13241;51.208;4.432;2023-08-07T05:05:23;14.40;99.90
25300;DHT22;13241;51.208;4.432;2023-08-07T05:07:51;14.40;99.90
25300;DHT22;13241;51.208;4.432;2023-08-07T05:10:18;14.40;99.90
25300;DHT22;13241;51.208;4.432;2023-08-07T05:12:45;14.40;99.90
25300;DHT22;13241;51.208;4.432;2023-08-07T05:15:12;14.40;99.90
25300;DHT22;13241;51.208;4.432;2023-08-07T05:17:39;14.40;99.90
25300;DHT22;13241;51.208;4.432;2023-08-07T05:20:07;14.50;99.90
25300;DHT22;13241;51.208;4.432;2023-08-07T05:22:35;14.50;99.90
25300;DHT22;13241;51.208;4.432;2023-08-07T05:25:03;14.40;99.90
25300;DHT22;13241;51.208;4.432;2023-08-07T05:27:30;14.40;99.90
25300;DHT22;13241;51.208;4.432;2023-08-07T05:29:57;14.50;99.90
25300;DHT22;13241;51.208;4.432;2023-08-07T05:32:24;14.60;99.90
25300;DHT22;13241;51.208;4.432;2023-08-07T05:34:51;14.60;99.90
25300;DHT22;13241;51.208;4.432;2023-08-07T05:37:18;14.50;99.90
25300;DHT22;13241;51.208;4.432;2023-08-07T05:39:45;14.50;99.90
25300;DHT22;13241;51.208;4.432;2023-08-07T05:42:12;14.40;99.90
25300;DHT22;13241;51.208;4.432;2023-08-07T05:44:39;14.30;99.90
25300;DHT22;13241;51.208;4.432;2023-08-07T05:47:06;14.30;99.90
25300;DHT22;13241;51.208;4.432;2023-08-07T05:49:33;14.30;99.90
25300;DHT22;13241;51.208;4.432;2023-08-07T05:52:01;14.30;99.90
25300;DHT22;13241;51.208;4.432;2023-08-07T05:54:28;14.40;99.90
25300;DHT22;13241;51.208;4.432;2023-08-07T05:56:55;14.50;99.90
25300;DHT22;13241;51.208;4.432;2023-08-07T05:59:22;14.40;99.90
25300;DHT22;13241;51.208;4.432;2023-08-07T06:01:49;14.40;99.90
25300;DHT22;13241;51.208;4.432;2023-08-07T06:04:18;14.30;99.90
25300;DHT22;13241;51.208;4.432;2023-08-07T06:06:45;14.30;99.90
25300;DHT22;13241;51.208;4.432;2023-08-07T06:09:12;14.30;99.90
25300;DHT22;13241;51.208;4.432;2023-08-07T06:11:42;14.30;99.90
25300;DHT22;13241;51.208;4.432;2023-08-07T06:14:10;14.30;99.90
25300;DHT22;13241;51.208;4.432;2023-08-07T06:16:37;14.40;99.90
25300;DHT22;13241;51.208;4.432;2023-08-07T06:19:04;14.50;99.90
25300;DHT22;13241;51.208;4.432;2023-08-07T06:21:51;14.60;99.90
25300;DHT22;13241;51.208;4.432;2023-08-07T06:24:18;14.70;99.90
25300;DHT22;13241;51.208;4.432;2023-08-07T06:26:45;14.80;99.90
25300;DHT22;13241;51.208;4.432;2023-08-07T06:29:12;14.80;99.90
25300;DHT22;13241;51.208;4.432;2023-08-07T06:31:39;14.80;99.90
25300;DHT22;13241;51.208;4.432;2023-08-07T06:34:06;14.80;99.90
25300;DHT22;13241;51.208;4.432;2023-08-07T06:36:33;14.90;99.90
25300;DHT22;13241;51.208;4.432;2023-08-07T06:39:00;15.00;99.90
25300;DHT22;13241;51.208;4.432;2023-08-07T06:41:27;15.30;99.90
25300;DHT22;13241;51.208;4.432;2023-08-07T06:43:54;15.50;99.90
25300;DHT22;13241;51.208;4.432;2023-08-07T06:46:21;15.90;99.90
25300;DHT22;13241;51.208;4.432;2023-08-07T06:48:54;16.30;99.90
25300;DHT22;13241;51.208;4.432;2023-08-07T06:51:21;16.80;99.90
25300;DHT22;13241;51.208;4.432;2023-08-07T06:53:48;17.30;99.90
25300;DHT22;13241;51.208;4.432;2023-08-07T06:56:14;17.70;99.90
25300;DHT22;13241;51.208;4.432;2023-08-07T06:58:42;17.90;99.90
25300;DHT22;13241;51.208;4.432;2023-08-07T07:01:09;17.90;99.90
25300;DHT22;13241;51.208;4.432;2023-08-07T07:03:35;18.10;99.90
25300;DHT22;13241;51.208;4.432;2023-08-07T07:06:03;18.10;99.90
25300;DHT22;13241;51.208;4.432;2023-08-07T07:08:30;18.00;99.90
25300;DHT22;13241;51.208;4.432;2023-08-07T07:10:57;17.80;99.90
25300;DHT22;13241;51.208;4.432;2023-08-07T07:13:25;17.70;99.90
25300;DHT22;13241;51.208;4.432;2023-08-07T07:15:55;17.50;99.90
25300;DHT22;13241;51.208;4.432;2023-08-07T07:18:22;17.40;99.90
25300;DHT22;13241;51.208;4.432;2023-08-07T07:20:57;17.30;99.90
25300;DHT22;13241;51.208;4.432;2023-08-07T07:23:24;17.10;99.90
25300;DHT22;13241;51.208;4.432;2023-08-07T07:25:51;16.90;99.90
25300;DHT22;13241;51.208;4.432;2023-08-07T07:28:18;16.90;99.90
25300;DHT22;13241;51.208;4.432;2023-08-07T07:30:45;17.00;99.90
25300;DHT22;13241;51.208;4.432;2023-08-07T07:33:12;17.00;99.90
25300;DHT22;13241;51.208;4.432;2023-08-07T07:35:40;17.10;99.90
25300;DHT22;13241;51.208;4.432;2023-08-07T07:38:07;17.30;99.90
25300;DHT22;13241;51.208;4.432;2023-08-07T07:40:34;17.40;99.90
25300;DHT22;13241;51.208;4.432;2023-08-07T07:43:02;17.60;99.90
25300;DHT22;13241;51.208;4.432;2023-08-07T07:45:29;18.10;99.90
25300;DHT22;13241;51.208;4.432;2023-08-07T07:47:56;18.50;99.90
25300;DHT22;13241;51.208;4.432;2023-08-07T07:50:24;18.80;99.90
25300;DHT22;13241;51.208;4.432;2023-08-07T07:52:50;18.70;99.90
25300;DHT22;13241;51.208;4.432;2023-08-07T07:55:17;18.50;99.90
25300;DHT22;13241;51.208;4.432;2023-08-07T07:57:44;18.40;99.90
25300;DHT22;13241;51.208;4.432;2023-08-07T08:00:12;18.30;99.90
25300;DHT22;13241;51.208;4.432;2023-08-07T08:02:40;18.30;99.90
25300;DHT22;13241;51.208;4.432;2023-08-07T08:05:10;18.30;99.90
25300;DHT22;13241;51.208;4.432;2023-08-07T08:07:39;18.20;99.90
25300;DHT22;13241;51.208;4.432;2023-08-07T08:10:09;18.00;99.90
25300;DHT22;13241;51.208;4.432;2023-08-07T08:12:36;18.00;99.90
25300;DHT22;13241;51.208;4.432;2023-08-07T08:15:04;18.10;99.90
25300;DHT22;13241;51.208;4.432;2023-08-07T08:17:31;18.20;99.90
25300;DHT22;13241;51.208;4.432;2023-08-07T08:19:59;18.10;99.90
25300;DHT22;13241;51.208;4.432;2023-08-07T08:22:26;18.00;99.90
25300;DHT22;13241;51.208;4.432;2023-08-07T08:24:53;18.20;99.90
25300;DHT22;13241;51.208;4.432;2023-08-07T08:27:20;18.40;99.90
25300;DHT22;13241;51.208;4.432;2023-08-07T08:29:48;18.60;99.90
25300;DHT22;13241;51.208;4.432;2023-08-07T08:32:15;18.90;99.90
25300;DHT22;13241;51.208;4.432;2023-08-07T08:34:42;19.30;99.90
25300;DHT22;13241;51.208;4.432;2023-08-07T08:37:09;19.60;99.90
25300;DHT22;13241;51.208;4.432;2023-08-07T08:39:37;19.70;99.90
25300;DHT22;13241;51.208;4.432;2023-08-07T08:42:05;19.80;99.90
25300;DHT22;13241;51.208;4.432;2023-08-07T08:44:36;20.00;99.90
25300;DHT22;13241;51.208;4.432;2023-08-07T08:47:04;20.40;99.90
25300;DHT22;13241;51.208;4.432;2023-08-07T08:49:35;20.90;99.90
25300;DHT22;13241;51.208;4.432;2023-08-07T08:52:04;20.90;99.90
25300;DHT22;13241;51.208;4.432;2023-08-07T08:54:32;20.50;99.90
25300;DHT22;13241;51.208;4.432;2023-08-07T08:56:59;20.00;99.90
25300;DHT22;13241;51.208;4.432;2023-08-07T08:59:27;20.00;99.90
25300;DHT22;13241;51.208;4.432;2023-08-07T09:01:54;20.20;99.90
25300;DHT22;13241;51.208;4.432;2023-08-07T09:04:21;20.10;99.90
25300;DHT22;13241;51.208;4.432;2023-08-07T09:06:48;19.70;99.90
25300;DHT22;13241;51.208;4.432;2023-08-07T09:09:17;19.30;99.90
25300;DHT22;13241;51.208;4.432;2023-08-07T09:11:46;19.40;99.90
25300;DHT22;13241;51.208;4.432;2023-08-07T09:14:16;19.80;99.90
25300;DHT22;13241;51.208;4.432;2023-08-07T09:16:46;20.00;99.90
25300;DHT22;13241;51.208;4.432;2023-08-07T09:19:14;20.20;99.90
25300;DHT22;13241;51.208;4.432;2023-08-07T09:21:42;20.20;99.90
25300;DHT22;13241;51.208;4.432;2023-08-07T09:24:09;20.50;99.90
25300;DHT22;13241;51.208;4.432;2023-08-07T09:26:36;20.80;99.90
25300;DHT22;13241;51.208;4.432;2023-08-07T09:29:03;21.10;99.90
25300;DHT22;13241;51.208;4.432;2023-08-07T09:31:30;21.20;99.90
25300;DHT22;13241;51.208;4.432;2023-08-07T09:34:04;20.80;99.90
25300;DHT22;13241;51.208;4.432;2023-08-07T09:36:32;20.50;99.90
25300;DHT22;13241;51.208;4.432;2023-08-07T09:39:03;20.70;99.90
25300;DHT22;13241;51.208;4.432;2023-08-07T09:41:31;21.10;99.90
25300;DHT22;13241;51.208;4.432;2023-08-07T09:43:58;21.30;99.90
25300;DHT22;13241;51.208;4.432;2023-08-07T09:46:28;21.10;99.90
25300;DHT22;13241;51.208;4.432;2023-08-07T09:48:58;21.00;99.90
25300;DHT22;13241;51.208;4.432;2023-08-07T09:51:25;20.90;99.90
25300;DHT22;13241;51.208;4.432;2023-08-07T09:53:52;20.70;99.90
25300;DHT22;13241;51.208;4.432;2023-08-07T09:56:19;20.70;99.90
25300;DHT22;13241;51.208;4.432;2023-08-07T09:58:47;20.90;99.90
25300;DHT22;13241;51.208;4.432;2023-08-07T10:01:16;20.90;99.90
25300;DHT22;13241;51.208;4.432;2023-08-07T10:03:43;20.70;99.90
25300;DHT22;13241;51.208;4.432;2023-08-07T10:06:12;20.80;99.90
25300;DHT22;13241;51.208;4.432;2023-08-07T10:08:39;20.80;99.90
25300;DHT22;13241;51.208;4.432;2023-08-07T10:11:08;20.80;99.90
25300;DHT22;13241;51.208;4.432;2023-08-07T10:13:37;20.80;99.90
25300;DHT22;13241;51.208;4.432;2023-08-07T10:16:06;20.90;99.90
25300;DHT22;13241;51.208;4.432;2023-08-07T10:18:34;20.70;99.90
25300;DHT22;13241;51.208;4.432;2023-08-07T10:21:03;20.60;99.90
25300;DHT22;13241;51.208;4.432;2023-08-07T10:23:35;20.30;99.90
25300;DHT22;13241;51.208;4.432;2023-08-07T10:26:04;20.50;99.90
25300;DHT22;13241;51.208;4.432;2023-08-07T10:28:34;21.00;99.90
25300;DHT22;13241;51.208;4.432;2023-08-07T10:31:06;21.00;99.90
25300;DHT22;13241;51.208;4.432;2023-08-07T10:33:34;21.00;99.90
25300;DHT22;13241;51.208;4.432;2023-08-07T10:36:08;20.80;99.90
25300;DHT22;13241;51.208;4.432;2023-08-07T10:38:36;20.90;99.90
25300;DHT22;13241;51.208;4.432;2023-08-07T10:41:08;21.20;99.90
25300;DHT22;13241;51.208;4.432;2023-08-07T10:43:40;21.30;99.90
25300;DHT22;13241;51.208;4.432;2023-08-07T10:46:11;21.40;99.90
25300;DHT22;13241;51.208;4.432;2023-08-07T10:48:46;21.30;99.90
25300;DHT22;13241;51.208;4.432;2023-08-07T10:51:17;21.20;99.90
25300;DHT22;13241;51.208;4.432;2023-08-07T10:53:48;21.00;99.90
25300;DHT22;13241;51.208;4.432;2023-08-07T10:56:32;20.90;99.90
25300;DHT22;13241;51.208;4.432;2023-08-07T10:59:08;21.00;99.90
25300;DHT22;13241;51.208;4.432;2023-08-07T11:01:43;21.10;99.90
25300;DHT22;13241;51.208;4.432;2023-08-07T11:04:13;21.50;99.90
25300;DHT22;13241;51.208;4.432;2023-08-07T11:06:42;21.70;99.90
25300;DHT22;13241;51.208;4.432;2023-08-07T11:09:10;21.60;99.90
25300;DHT22;13241;51.208;4.432;2023-08-07T11:11:41;21.60;99.90
25300;DHT22;13241;51.208;4.432;2023-08-07T11:14:10;21.60;99.90
25300;DHT22;13241;51.208;4.432;2023-08-07T11:16:37;21.50;99.90
25300;DHT22;13241;51.208;4.432;2023-08-07T11:19:05;21.50;99.90
25300;DHT22;13241;51.208;4.432;2023-08-07T11:21:32;21.40;99.90
25300;DHT22;13241;51.208;4.432;2023-08-07T11:24:01;21.50;99.90
25300;DHT22;13241;51.208;4.432;2023-08-07T11:26:31;21.20;99.90
25300;DHT22;13241;51.208;4.432;2023-08-07T11:28:58;21.00;99.90
25300;DHT22;13241;51.208;4.432;2023-08-07T11:31:25;20.90;99.90
25300;DHT22;13241;51.208;4.432;2023-08-07T11:33:57;20.90;99.90
25300;DHT22;13241;51.208;4.432;2023-08-07T11:36:25;20.70;99.90
25300;DHT22;13241;51.208;4.432;2023-08-07T11:38:52;20.90;99.90
25300;DHT22;13241;51.208;4.432;2023-08-07T11:41:19;21.30;99.90
25300;DHT22;13241;51.208;4.432;2023-08-07T11:43:47;21.70;99.90
25300;DHT22;13241;51.208;4.432;2023-08-07T11:46:15;21.90;99.90
25300;DHT22;13241;51.208;4.432;2023-08-07T11:48:43;21.90;99.90
25300;DHT22;13241;51.208;4.432;2023-08-07T11:51:11;21.90;99.90
25300;DHT22;13241;51.208;4.432;2023-08-07T11:53:39;21.90;99.90
25300;DHT22;13241;51.208;4.432;2023-08-07T11:56:11;21.70;99.90
25300;DHT22;13241;51.208;4.432;2023-08-07T11:58:47;21.50;99.90
25300;DHT22;13241;51.208;4.432;2023-08-07T12:01:19;21.50;99.90
25300;DHT22;13241;51.208;4.432;2023-08-07T12:03:55;21.60;99.90
25300;DHT22;13241;51.208;4.432;2023-08-07T12:06:23;21.70;99.90
25300;DHT22;13241;51.208;4.432;2023-08-07T12:08:54;21.80;99.90
25300;DHT22;13241;51.208;4.432;2023-08-07T12:11:22;21.50;99.90
25300;DHT22;13241;51.208;4.432;2023-08-07T12:13:49;21.40;99.90
25300;DHT22;13241;51.208;4.432;2023-08-07T12:16:17;21.50;99.90
25300;DHT22;13241;51.208;4.432;2023-08-07T12:18:49;21.80;99.90
25300;DHT22;13241;51.208;4.432;2023-08-07T12:21:21;21.80;99.90
25300;DHT22;13241;51.208;4.432;2023-08-07T12:23:51;21.70;99.90
25300;DHT22;13241;51.208;4.432;2023-08-07T12:26:18;21.70;99.90
25300;DHT22;13241;51.208;4.432;2023-08-07T12:28:45;21.70;99.90
25300;DHT22;13241;51.208;4.432;2023-08-07T12:31:12;21.90;99.90
25300;DHT22;13241;51.208;4.432;2023-08-07T12:33:39;22.00;99.90
25300;DHT22;13241;51.208;4.432;2023-08-07T12:36:06;22.10;99.90
25300;DHT22;13241;51.208;4.432;2023-08-07T12:38:46;22.30;99.90
25300;DHT22;13241;51.208;4.432;2023-08-07T12:41:13;22.30;99.90
25300;DHT22;13241;51.208;4.432;2023-08-07T12:43:44;22.20;99.90
25300;DHT22;13241;51.208;4.432;2023-08-07T12:46:11;22.30;99.90
25300;DHT22;13241;51.208;4.432;2023-08-07T12:48:41;22.70;99.90
25300;DHT22;13241;51.208;4.432;2023-08-07T12:51:08;22.80;99.90
25300;DHT22;13241;51.208;4.432;2023-08-07T12:53:35;22.70;99.90
25300;DHT22;13241;51.208;4.432;2023-08-07T12:56:02;23.00;99.90
25300;DHT22;13241;51.208;4.432;2023-08-07T12:58:30;22.90;99.90
25300;DHT22;13241;51.208;4.432;2023-08-07T13:00:57;23.00;99.90
25300;DHT22;13241;51.208;4.432;2023-08-07T13:03:24;22.90;99.90
25300;DHT22;13241;51.208;4.432;2023-08-07T13:05:51;22.60;99.90
25300;DHT22;13241;51.208;4.432;2023-08-07T13:08:19;22.60;99.90
25300;DHT22;13241;51.208;4.432;2023-08-07T13:10:46;22.50;99.90
25300;DHT22;13241;51.208;4.432;2023-08-07T13:13:16;22.40;99.90
25300;DHT22;13241;51.208;4.432;2023-08-07T13:15:43;22.30;99.90
25300;DHT22;13241;51.208;4.432;2023-08-07T13:18:09;22.50;99.90
25300;DHT22;13241;51.208;4.432;2023-08-07T13:20:37;22.70;99.90
25300;DHT22;13241;51.208;4.432;2023-08-07T13:23:04;22.50;99.90
25300;DHT22;13241;51.208;4.432;2023-08-07T13:25:33;22.40;99.90
25300;DHT22;13241;51.208;4.432;2023-08-07T13:28:00;22.50;99.90
25300;DHT22;13241;51.208;4.432;2023-08-07T13:30:30;22.40;99.90
25300;DHT22;13241;51.208;4.432;2023-08-07T13:33:03;22.50;99.90
25300;DHT22;13241;51.208;4.432;2023-08-07T13:35:30;22.50;99.90
25300;DHT22;13241;51.208;4.432;2023-08-07T13:37:58;22.50;99.90
25300;DHT22;13241;51.208;4.432;2023-08-07T13:40:26;22.60;99.90
25300;DHT22;13241;51.208;4.432;2023-08-07T13:42:53;22.80;99.90
25300;DHT22;13241;51.208;4.432;2023-08-07T13:45:20;23.00;99.90
25300;DHT22;13241;51.208;4.432;2023-08-07T13:47:47;24.40;99.90
25300;DHT22;13241;51.208;4.432;2023-08-07T13:50:15;25.70;99.90
25300;DHT22;13241;51.208;4.432;2023-08-07T13:52:42;26.00;99.90
25300;DHT22;13241;51.208;4.432;2023-08-07T13:55:09;26.00;99.90
25300;DHT22;13241;51.208;4.432;2023-08-07T13:57:36;26.40;99.90
25300;DHT22;13241;51.208;4.432;2023-08-07T14:00:04;26.70;99.90
25300;DHT22;13241;51.208;4.432;2023-08-07T14:02:31;27.20;99.90
25300;DHT22;13241;51.208;4.432;2023-08-07T14:05:01;27.60;99.90
25300;DHT22;13241;51.208;4.432;2023-08-07T14:07:28;27.00;99.90
25300;DHT22;13241;51.208;4.432;2023-08-07T14:09:55;26.40;99.90
25300;DHT22;13241;51.208;4.432;2023-08-07T14:12:23;26.60;99.90
25300;DHT22;13241;51.208;4.432;2023-08-07T14:14:50;27.20;99.90
25300;DHT22;13241;51.208;4.432;2023-08-07T14:17:16;27.50;99.90
25300;DHT22;13241;51.208;4.432;2023-08-07T14:19:43;27.30;99.90
25300;DHT22;13241;51.208;4.432;2023-08-07T14:22:11;27.90;99.90
25300;DHT22;13241;51.208;4.432;2023-08-07T14:24:38;28.40;99.90
25300;DHT22;13241;51.208;4.432;2023-08-07T14:27:05;28.40;99.00
25300;DHT22;13241;51.208;4.432;2023-08-07T14:29:31;26.50;99.90
25300;DHT22;13241;51.208;4.432;2023-08-07T14:31:58;25.90;99.90
25300;DHT22;13241;51.208;4.432;2023-08-07T14:34:25;26.60;99.90
25300;DHT22;13241;51.208;4.432;2023-08-07T14:36:52;27.50;99.90
25300;DHT22;13241;51.208;4.432;2023-08-07T14:39:21;27.20;99.90
25300;DHT22;13241;51.208;4.432;2023-08-07T14:41:50;26.50;99.90
25300;DHT22;13241;51.208;4.432;2023-08-07T14:44:18;26.20;99.90
25300;DHT22;13241;51.208;4.432;2023-08-07T14:46:45;26.20;99.90
25300;DHT22;13241;51.208;4.432;2023-08-07T14:49:12;26.90;99.90
25300;DHT22;13241;51.208;4.432;2023-08-07T14:51:39;27.30;99.90
25300;DHT22;13241;51.208;4.432;2023-08-07T14:54:06;26.50;99.90
25300;DHT22;13241;51.208;4.432;2023-08-07T14:56:33;26.20;99.90
25300;DHT22;13241;51.208;4.432;2023-08-07T14:59:00;25.70;99.90
25300;DHT22;13241;51.208;4.432;2023-08-07T15:01:27;26.10;99.90
25300;DHT22;13241;51.208;4.432;2023-08-07T15:03:54;27.10;99.90
25300;DHT22;13241;51.208;4.432;2023-08-07T15:06:21;28.40;99.50
25300;DHT22;13241;51.208;4.432;2023-08-07T15:08:48;29.10;97.90
25300;DHT22;13241;51.208;4.432;2023-08-07T15:11:16;28.90;95.90
25300;DHT22;13241;51.208;4.432;2023-08-07T15:13:43;27.70;96.40
25300;DHT22;13241;51.208;4.432;2023-08-07T15:16:10;26.40;98.30
25300;DHT22;13241;51.208;4.432;2023-08-07T15:18:37;25.10;99.90
25300;DHT22;13241;51.208;4.432;2023-08-07T15:21:07;24.40;99.90
25300;DHT22;13241;51.208;4.432;2023-08-07T15:23:34;23.70;99.90
25300;DHT22;13241;51.208;4.432;2023-08-07T15:26:00;24.40;99.90
25300;DHT22;13241;51.208;4.432;2023-08-07T15:28:28;25.80;99.90
25300;DHT22;13241;51.208;4.432;2023-08-07T15:30:54;26.90;99.90
25300;DHT22;13241;51.208;4.432;2023-08-07T15:33:21;28.10;99.00
25300;DHT22;13241;51.208;4.432;2023-08-07T15:35:54;28.50;96.50